createdAt,value
2017-03-05T20:51:10.868Z,8.61
2017-03-05T20:52:26.245Z,8.5
2017-03-05T20:53:40.455Z,8.48
2017-03-05T20:54:56.142Z,8.46
2017-03-05T20:56:11.407Z,8.44
2017-03-05T20:57:25.824Z,8.43
2017-03-05T20:58:41.084Z,8.43
2017-03-05T20:59:56.548Z,8.41
2017-03-05T21:01:12.078Z,8.4
2017-03-05T21:02:29.226Z,8.33
2017-03-05T21:03:44.206Z,8.31
2017-03-05T21:04:59.035Z,8.29
2017-03-05T21:06:13.984Z,8.26
2017-03-05T21:07:28.506Z,8.25
2017-03-05T21:08:43.539Z,8.26
2017-03-05T21:09:57.964Z,8.22
2017-03-05T21:11:13.811Z,8.19
2017-03-05T21:12:28.848Z,8.19
2017-03-05T21:13:44.246Z,8.18
2017-03-05T21:14:58.824Z,8.19
2017-03-05T21:16:15.083Z,8.21
2017-03-05T21:17:30.601Z,8.22
2017-03-05T21:18:44.754Z,8.2
2017-03-05T21:19:59.876Z,8.16
2017-03-05T21:21:14.842Z,8.16
2017-03-05T21:22:28.852Z,8.18
2017-03-05T21:23:46.082Z,8.18
2017-03-05T21:25:01.525Z,8.12
2017-03-05T21:26:16.128Z,8.09
2017-03-05T21:27:31.392Z,8.03
2017-03-05T21:28:46.835Z,8
2017-03-05T21:30:01.257Z,7.99
2017-03-05T21:31:16.340Z,8
2017-03-05T21:32:30.521Z,8.02
2017-03-05T21:33:45.697Z,8.03
2017-03-05T21:35:00.822Z,8.05
2017-03-05T21:36:16.136Z,8.04
2017-03-05T21:37:31.417Z,8.03
2017-03-05T21:38:46.451Z,8.02
2017-03-05T21:40:02.060Z,8.03
2017-03-05T21:41:17.232Z,8.08
2017-03-05T21:42:32.475Z,8.1
2017-03-05T21:43:47.050Z,8.1
2017-03-05T21:45:01.751Z,8.08
2017-03-05T21:46:16.130Z,8.07
2017-03-05T21:47:30.245Z,8.06
2017-03-05T21:48:45.769Z,8.05
2017-03-05T21:50:01.845Z,8.06
2017-03-05T21:51:17.544Z,8.08
2017-03-05T21:52:35.602Z,8.06
2017-03-05T21:53:50.414Z,8.07
2017-03-05T21:55:06.049Z,8.09
2017-03-05T21:56:21.106Z,8.08
2017-03-05T21:57:36.513Z,8.06
2017-03-05T21:58:52.803Z,8.07
2017-03-05T22:00:08.145Z,8.1
2017-03-05T22:01:23.238Z,8.11
2017-03-05T22:02:39.201Z,8.1
2017-03-05T22:03:55.679Z,8.1
2017-03-05T22:05:10.960Z,8.1
2017-03-05T22:06:28.152Z,8.12
2017-03-05T22:07:43.892Z,8.1
2017-03-05T22:09:01.459Z,8.06
2017-03-05T22:10:17.855Z,8.04
2017-03-05T22:11:33.830Z,8.02
2017-03-05T22:12:50.863Z,7.99
2017-03-05T22:14:06.964Z,7.98
2017-03-05T22:15:22.865Z,7.98
2017-03-05T22:16:39.083Z,7.97
2017-03-05T22:18:18.759Z,8
2017-03-05T22:19:34.244Z,8.02
2017-03-05T22:20:50.881Z,8.05
2017-03-05T22:22:06.510Z,8.1
2017-03-05T22:23:23.450Z,8.15
2017-03-05T22:24:38.482Z,8.17
2017-03-05T22:25:54.141Z,8.2
2017-03-05T22:27:10.465Z,8.19
2017-03-05T22:28:25.826Z,8.22
2017-03-05T22:29:40.328Z,8.23
2017-03-05T22:30:54.463Z,8.23
2017-03-05T22:32:10.658Z,8.21
2017-03-05T22:33:27.027Z,8.19
2017-03-05T22:34:42.528Z,8.16
2017-03-05T22:35:57.427Z,8.15
2017-03-05T22:37:12.899Z,8.15
2017-03-05T22:38:29.228Z,8.15
2017-03-05T22:39:43.847Z,8.12
2017-03-05T22:40:59.374Z,8.07
2017-03-05T22:42:15.689Z,8.05
2017-03-05T22:43:30.306Z,8.02
2017-03-05T22:44:45.935Z,8.01
2017-03-05T22:46:04.044Z,8.01
2017-03-05T22:47:20.308Z,8.03
2017-03-05T22:48:36.353Z,8.06
2017-03-05T22:49:52.838Z,8.1
2017-03-05T22:51:07.563Z,8.11
2017-03-05T22:52:23.557Z,8.09
2017-03-05T22:53:38.328Z,8.06
2017-03-05T22:54:53.182Z,8.06
2017-03-05T22:56:08.921Z,8.05
2017-03-05T22:57:25.840Z,8.03
2017-03-05T22:58:40.801Z,8.01
2017-03-05T22:59:57.614Z,8.01
2017-03-05T23:01:11.802Z,8
2017-03-05T23:02:27.232Z,7.98
2017-03-05T23:03:41.152Z,7.95
2017-03-05T23:04:55.640Z,7.91
2017-03-05T23:06:12.126Z,7.9
2017-03-05T23:07:26.254Z,7.91
2017-03-05T23:09:12.963Z,7.91
2017-03-05T23:10:28.446Z,7.86
2017-03-05T23:11:43.240Z,7.85
2017-03-05T23:12:57.934Z,7.86
2017-03-05T23:14:12.921Z,7.86
2017-03-05T23:15:27.927Z,7.87
2017-03-05T23:16:42.476Z,7.87
2017-03-05T23:17:57.864Z,7.86
2017-03-05T23:19:37.528Z,7.87
2017-03-05T23:20:53.384Z,7.87
2017-03-05T23:22:08.696Z,7.88
2017-03-05T23:23:23.267Z,7.89
2017-03-05T23:24:37.510Z,7.89
2017-03-05T23:25:53.924Z,7.89
2017-03-05T23:27:07.978Z,7.9
2017-03-05T23:28:24.736Z,7.9
2017-03-05T23:29:39.603Z,7.92
2017-03-05T23:30:56.023Z,7.93
2017-03-05T23:32:11.698Z,7.93
2017-03-05T23:33:26.026Z,7.94
2017-03-05T23:34:40.879Z,7.95
2017-03-05T23:35:55.483Z,7.95
2017-03-05T23:37:09.710Z,7.94
2017-03-05T23:38:23.654Z,7.93
2017-03-05T23:39:38.302Z,7.92
2017-03-05T23:40:52.804Z,7.91
2017-03-05T23:42:07.318Z,7.89
2017-03-05T23:43:22.246Z,7.87
2017-03-05T23:44:36.882Z,7.85
2017-03-05T23:45:51.043Z,7.86
2017-03-05T23:47:06.960Z,7.82
2017-03-05T23:48:21.706Z,7.81
2017-03-05T23:49:37.905Z,7.8
2017-03-05T23:50:53.483Z,7.78
2017-03-05T23:52:08.190Z,7.77
2017-03-05T23:53:22.951Z,7.76
2017-03-05T23:54:37.592Z,7.75
2017-03-05T23:55:54.947Z,7.76
2017-03-05T23:57:09.455Z,7.75
2017-03-05T23:58:24.495Z,7.77
2017-03-05T23:59:39.817Z,7.76
